Aviation Digital Data Service (ADDS)

Output produced by METARs form (1632 UTC 26 September 2023)
found at http://www.aviationweather.gov/metar/data/
 
METAR text: EPLL 261630Z 00000KT CAVOK 19/16 Q1024
Conditions at: EPLL (LODZ/LUBLINEK , PL) observed 1630 UTC 26 September 2023
Temperature: 19.0°C (66°F)
Dewpoint: 16.0°C (61°F) [RH = 83%]
Pressure (altimeter): 30.24 inches Hg (1024.0 mb)
Winds: calm
Visibility: 6 or more miles (10+ km)
Ceiling: ceiling and visibility are OK
Clouds: unknown
Weather: no significant weather observed at this time

METAR text: EPLL 261600Z 13002KT CAVOK 20/16 Q1025
Conditions at: EPLL (LODZ/LUBLINEK , PL) observed 1600 UTC 26 September 2023
Temperature: 20.0°C (68°F)
Dewpoint: 16.0°C (61°F) [RH = 78%]
Pressure (altimeter): 30.27 inches Hg (1025.0 mb)
Winds: from the SE (130 degrees) at 2 MPH (2 knots; 1.0 m/s)
Visibility: 6 or more miles (10+ km)
Ceiling: ceiling and visibility are OK
Clouds: unknown
Weather: no significant weather observed at this time

Forecast for: EPLL (LODZ/LUBLINEK , PL)
Text: TAF EPLL 261130Z 2612/2712 12008KT 9999 BKN014
Forecast period: 1200 UTC 26 September 2023 to 1200 UTC 27 September 2023
Forecast type: FROM: standard forecast or significant change
Winds: from the ESE (120 degrees) at 9 MPH (8 knots; 4.1 m/s)
Visibility: 6 or more miles (10+ km)
Ceiling: 1400 feet AGL
Clouds: broken clouds at 1400 feet AGL
Weather: no significant weather forecast for this period
Text: BECMG 2612/2614 CAVOK
Forecast period: 1200 UTC 26 September 2023 to 1200 UTC 27 September 2023
Forecast type: BECOMING: Conditions expected to become as follows by 1400 UTC 26 September 2023
Winds: from the ESE (120 degrees) at 9 MPH (8 knots; 4.1 m/s)
Visibility: 6 or more miles (10+ km)
Ceiling: unknown
Clouds: missing
Weather: NSW  (no significant weather)
Text: TEMPO 2700/2707 0500 FG BKN003
Forecast period: 0000 to 0700 UTC 27 September 2023
Forecast type: TEMPORARY: The following changes expected for less than half the time period
Visibility: 0.31 miles (0.50 km)
Ceiling: 300 feet AGL
Clouds: broken clouds at 300 feet AGL
Weather: FG  (fog)